sensor_id;sensor_type;location;lat;lon;timestamp;P1;durP1;ratioP1;P2;durP2;ratioP2
5149;SDS011;2593;52.466;13.436;2023-04-16T00:01:37;39.70;;;23.40;;
5149;SDS011;2593;52.466;13.436;2023-04-16T00:04:03;39.70;;;22.80;;
5149;SDS011;2593;52.466;13.436;2023-04-16T00:06:29;38.90;;;23.33;;
5149;SDS011;2593;52.466;13.436;2023-04-16T00:08:54;43.60;;;24.97;;
5149;SDS011;2593;52.466;13.436;2023-04-16T00:11:20;37.77;;;23.77;;
5149;SDS011;2593;52.466;13.436;2023-04-16T00:13:46;40.80;;;23.77;;
5149;SDS011;2593;52.466;13.436;2023-04-16T00:16:11;34.90;;;24.40;;
5149;SDS011;2593;52.466;13.436;2023-04-16T00:18:37;37.00;;;22.73;;
5149;SDS011;2593;52.466;13.436;2023-04-16T00:21:03;37.07;;;23.53;;
5149;SDS011;2593;52.466;13.436;2023-04-16T00:23:29;42.00;;;23.73;;
5149;SDS011;2593;52.466;13.436;2023-04-16T00:25:55;43.63;;;25.50;;
5149;SDS011;2593;52.466;13.436;2023-04-16T00:28:23;38.93;;;23.30;;
5149;SDS011;2593;52.466;13.436;2023-04-16T00:30:49;46.17;;;26.60;;
5149;SDS011;2593;52.466;13.436;2023-04-16T00:33:15;34.93;;;23.87;;
5149;SDS011;2593;52.466;13.436;2023-04-16T00:35:43;40.50;;;24.93;;
5149;SDS011;2593;52.466;13.436;2023-04-16T00:38:10;39.33;;;23.87;;
5149;SDS011;2593;52.466;13.436;2023-04-16T00:40:35;41.87;;;24.10;;
5149;SDS011;2593;52.466;13.436;2023-04-16T00:43:01;35.57;;;23.83;;
5149;SDS011;2593;52.466;13.436;2023-04-16T00:45:27;38.23;;;23.10;;
5149;SDS011;2593;52.466;13.436;2023-04-16T00:47:53;41.87;;;25.40;;
5149;SDS011;2593;52.466;13.436;2023-04-16T00:50:19;45.83;;;24.97;;
5149;SDS011;2593;52.466;13.436;2023-04-16T00:52:46;40.03;;;24.30;;
5149;SDS011;2593;52.466;13.436;2023-04-16T00:55:12;37.70;;;24.40;;
5149;SDS011;2593;52.466;13.436;2023-04-16T00:57:39;43.77;;;26.17;;
5149;SDS011;2593;52.466;13.436;2023-04-16T01:00:05;47.37;;;25.10;;
5149;SDS011;2593;52.466;13.436;2023-04-16T01:02:32;43.07;;;25.03;;
5149;SDS011;2593;52.466;13.436;2023-04-16T01:04:58;45.87;;;26.63;;
5149;SDS011;2593;52.466;13.436;2023-04-16T01:07:25;39.30;;;26.13;;
5149;SDS011;2593;52.466;13.436;2023-04-16T01:09:50;36.90;;;24.00;;
5149;SDS011;2593;52.466;13.436;2023-04-16T01:12:16;41.20;;;26.27;;
5149;SDS011;2593;52.466;13.436;2023-04-16T01:14:41;43.00;;;27.30;;
5149;SDS011;2593;52.466;13.436;2023-04-16T01:17:07;42.80;;;26.77;;
5149;SDS011;2593;52.466;13.436;2023-04-16T01:19:33;44.60;;;27.27;;
5149;SDS011;2593;52.466;13.436;2023-04-16T01:22:00;40.30;;;24.57;;
5149;SDS011;2593;52.466;13.436;2023-04-16T01:24:26;42.20;;;25.20;;
5149;SDS011;2593;52.466;13.436;2023-04-16T01:26:52;44.33;;;25.40;;
5149;SDS011;2593;52.466;13.436;2023-04-16T01:29:17;40.07;;;26.93;;
5149;SDS011;2593;52.466;13.436;2023-04-16T01:31:43;39.43;;;23.90;;
5149;SDS011;2593;52.466;13.436;2023-04-16T01:34:10;37.77;;;26.03;;
5149;SDS011;2593;52.466;13.436;2023-04-16T01:36:36;43.03;;;26.77;;
5149;SDS011;2593;52.466;13.436;2023-04-16T01:39:02;47.27;;;25.87;;
5149;SDS011;2593;52.466;13.436;2023-04-16T01:41:29;37.97;;;25.53;;
5149;SDS011;2593;52.466;13.436;2023-04-16T01:43:55;47.40;;;27.57;;
5149;SDS011;2593;52.466;13.436;2023-04-16T01:46:22;39.90;;;26.80;;
5149;SDS011;2593;52.466;13.436;2023-04-16T01:48:52;39.57;;;25.50;;
5149;SDS011;2593;52.466;13.436;2023-04-16T01:51:19;47.23;;;28.33;;
5149;SDS011;2593;52.466;13.436;2023-04-16T01:53:45;44.87;;;27.73;;
5149;SDS011;2593;52.466;13.436;2023-04-16T01:56:10;52.37;;;28.77;;
5149;SDS011;2593;52.466;13.436;2023-04-16T01:58:36;47.70;;;27.73;;
5149;SDS011;2593;52.466;13.436;2023-04-16T02:01:02;43.10;;;27.13;;
5149;SDS011;2593;52.466;13.436;2023-04-16T02:03:29;41.70;;;27.07;;
5149;SDS011;2593;52.466;13.436;2023-04-16T02:05:55;46.67;;;27.93;;
5149;SDS011;2593;52.466;13.436;2023-04-16T02:08:21;46.03;;;26.77;;
5149;SDS011;2593;52.466;13.436;2023-04-16T02:10:48;42.60;;;27.47;;
5149;SDS011;2593;52.466;13.436;2023-04-16T02:13:15;45.83;;;28.37;;
5149;SDS011;2593;52.466;13.436;2023-04-16T02:15:44;48.33;;;29.17;;
5149;SDS011;2593;52.466;13.436;2023-04-16T02:18:11;44.63;;;27.73;;
5149;SDS011;2593;52.466;13.436;2023-04-16T02:20:40;38.33;;;26.53;;
5149;SDS011;2593;52.466;13.436;2023-04-16T02:23:07;43.90;;;27.70;;
5149;SDS011;2593;52.466;13.436;2023-04-16T02:26:06;40.20;;;27.50;;
5149;SDS011;2593;52.466;13.436;2023-04-16T02:28:27;44.33;;;28.47;;
5149;SDS011;2593;52.466;13.436;2023-04-16T02:30:53;40.10;;;27.83;;
5149;SDS011;2593;52.466;13.436;2023-04-16T02:33:18;45.87;;;27.87;;
5149;SDS011;2593;52.466;13.436;2023-04-16T02:35:44;42.73;;;26.70;;
5149;SDS011;2593;52.466;13.436;2023-04-16T02:38:10;49.13;;;27.63;;
5149;SDS011;2593;52.466;13.436;2023-04-16T02:40:35;46.20;;;27.10;;
5149;SDS011;2593;52.466;13.436;2023-04-16T02:43:01;43.13;;;27.17;;
5149;SDS011;2593;52.466;13.436;2023-04-16T02:45:27;47.87;;;28.87;;
5149;SDS011;2593;52.466;13.436;2023-04-16T02:47:53;45.13;;;27.57;;
5149;SDS011;2593;52.466;13.436;2023-04-16T02:50:18;40.43;;;25.03;;
5149;SDS011;2593;52.466;13.436;2023-04-16T02:52:44;46.57;;;28.17;;
5149;SDS011;2593;52.466;13.436;2023-04-16T02:55:10;41.13;;;26.40;;
5149;SDS011;2593;52.466;13.436;2023-04-16T02:57:35;48.10;;;29.37;;
5149;SDS011;2593;52.466;13.436;2023-04-16T03:00:01;56.67;;;28.37;;
5149;SDS011;2593;52.466;13.436;2023-04-16T03:02:29;45.43;;;26.90;;
5149;SDS011;2593;52.466;13.436;2023-04-16T03:04:54;37.83;;;25.70;;
5149;SDS011;2593;52.466;13.436;2023-04-16T03:07:20;43.83;;;27.60;;
5149;SDS011;2593;52.466;13.436;2023-04-16T03:09:46;47.93;;;28.03;;
5149;SDS011;2593;52.466;13.436;2023-04-16T03:12:11;56.83;;;27.63;;
5149;SDS011;2593;52.466;13.436;2023-04-16T03:14:37;44.07;;;27.53;;
5149;SDS011;2593;52.466;13.436;2023-04-16T03:17:03;44.87;;;29.00;;
5149;SDS011;2593;52.466;13.436;2023-04-16T03:19:28;45.03;;;27.30;;
5149;SDS011;2593;52.466;13.436;2023-04-16T03:21:54;44.73;;;27.50;;
5149;SDS011;2593;52.466;13.436;2023-04-16T03:24:20;47.73;;;30.30;;
5149;SDS011;2593;52.466;13.436;2023-04-16T03:26:46;47.10;;;29.53;;
5149;SDS011;2593;52.466;13.436;2023-04-16T03:29:11;57.20;;;31.20;;
5149;SDS011;2593;52.466;13.436;2023-04-16T03:31:37;54.17;;;30.30;;
5149;SDS011;2593;52.466;13.436;2023-04-16T03:34:02;50.97;;;31.30;;
5149;SDS011;2593;52.466;13.436;2023-04-16T03:36:28;55.47;;;31.90;;
5149;SDS011;2593;52.466;13.436;2023-04-16T03:38:54;65.27;;;34.93;;
5149;SDS011;2593;52.466;13.436;2023-04-16T03:41:20;58.83;;;33.73;;
5149;SDS011;2593;52.466;13.436;2023-04-16T03:43:46;52.60;;;31.70;;
5149;SDS011;2593;52.466;13.436;2023-04-16T03:46:11;71.07;;;33.50;;
5149;SDS011;2593;52.466;13.436;2023-04-16T03:48:37;61.97;;;33.10;;
5149;SDS011;2593;52.466;13.436;2023-04-16T03:51:02;61.83;;;32.60;;
5149;SDS011;2593;52.466;13.436;2023-04-16T03:53:28;56.67;;;31.20;;
5149;SDS011;2593;52.466;13.436;2023-04-16T03:55:54;62.90;;;33.40;;
5149;SDS011;2593;52.466;13.436;2023-04-16T03:58:19;59.40;;;31.63;;
5149;SDS011;2593;52.466;13.436;2023-04-16T04:00:45;62.87;;;33.77;;
5149;SDS011;2593;52.466;13.436;2023-04-16T04:03:11;70.87;;;33.30;;
5149;SDS011;2593;52.466;13.436;2023-04-16T04:05:40;59.77;;;33.70;;
5149;SDS011;2593;52.466;13.436;2023-04-16T04:08:06;55.53;;;32.97;;
5149;SDS011;2593;52.466;13.436;2023-04-16T04:10:32;55.43;;;32.77;;
5149;SDS011;2593;52.466;13.436;2023-04-16T04:12:59;66.40;;;35.03;;
5149;SDS011;2593;52.466;13.436;2023-04-16T04:15:25;55.53;;;31.90;;
5149;SDS011;2593;52.466;13.436;2023-04-16T04:17:50;58.97;;;33.53;;
5149;SDS011;2593;52.466;13.436;2023-04-16T04:20:16;52.57;;;30.67;;
5149;SDS011;2593;52.466;13.436;2023-04-16T04:22:42;63.67;;;33.23;;
5149;SDS011;2593;52.466;13.436;2023-04-16T04:25:08;64.07;;;34.70;;
5149;SDS011;2593;52.466;13.436;2023-04-16T04:27:34;70.43;;;33.90;;
5149;SDS011;2593;52.466;13.436;2023-04-16T04:30:00;61.33;;;32.37;;
5149;SDS011;2593;52.466;13.436;2023-04-16T04:32:26;61.63;;;31.97;;
5149;SDS011;2593;52.466;13.436;2023-04-16T04:34:52;63.73;;;31.10;;
5149;SDS011;2593;52.466;13.436;2023-04-16T04:37:17;62.90;;;32.47;;
5149;SDS011;2593;52.466;13.436;2023-04-16T04:39:43;58.00;;;30.60;;
5149;SDS011;2593;52.466;13.436;2023-04-16T04:42:08;54.20;;;30.10;;
5149;SDS011;2593;52.466;13.436;2023-04-16T04:44:34;63.63;;;32.30;;
5149;SDS011;2593;52.466;13.436;2023-04-16T04:47:00;53.50;;;29.50;;
5149;SDS011;2593;52.466;13.436;2023-04-16T04:49:25;62.97;;;31.30;;
5149;SDS011;2593;52.466;13.436;2023-04-16T04:51:51;67.00;;;32.50;;
5149;SDS011;2593;52.466;13.436;2023-04-16T04:54:17;56.03;;;30.40;;
5149;SDS011;2593;52.466;13.436;2023-04-16T04:56:42;59.33;;;32.87;;
5149;SDS011;2593;52.466;13.436;2023-04-16T04:59:11;57.83;;;31.70;;
5149;SDS011;2593;52.466;13.436;2023-04-16T05:01:37;57.03;;;31.47;;
5149;SDS011;2593;52.466;13.436;2023-04-16T05:04:03;57.43;;;32.13;;
5149;SDS011;2593;52.466;13.436;2023-04-16T05:06:29;54.33;;;30.07;;
5149;SDS011;2593;52.466;13.436;2023-04-16T05:08:55;54.07;;;28.47;;
5149;SDS011;2593;52.466;13.436;2023-04-16T05:11:21;59.33;;;28.97;;
5149;SDS011;2593;52.466;13.436;2023-04-16T05:13:46;54.83;;;28.47;;
5149;SDS011;2593;52.466;13.436;2023-04-16T05:16:12;54.93;;;30.60;;
5149;SDS011;2593;52.466;13.436;2023-04-16T05:18:37;67.80;;;31.60;;
5149;SDS011;2593;52.466;13.436;2023-04-16T05:21:03;64.90;;;32.13;;
5149;SDS011;2593;52.466;13.436;2023-04-16T05:23:29;70.03;;;31.63;;
5149;SDS011;2593;52.466;13.436;2023-04-16T05:25:55;73.37;;;32.30;;
5149;SDS011;2593;52.466;13.436;2023-04-16T05:28:21;65.80;;;30.53;;
5149;SDS011;2593;52.466;13.436;2023-04-16T05:30:46;60.93;;;30.53;;
5149;SDS011;2593;52.466;13.436;2023-04-16T05:33:12;62.43;;;30.70;;
5149;SDS011;2593;52.466;13.436;2023-04-16T05:35:37;57.33;;;31.30;;
5149;SDS011;2593;52.466;13.436;2023-04-16T05:38:03;56.67;;;31.40;;
5149;SDS011;2593;52.466;13.436;2023-04-16T05:40:29;55.60;;;28.67;;
5149;SDS011;2593;52.466;13.436;2023-04-16T05:42:55;55.30;;;29.87;;
5149;SDS011;2593;52.466;13.436;2023-04-16T05:45:20;57.60;;;28.10;;
5149;SDS011;2593;52.466;13.436;2023-04-16T05:47:46;53.07;;;28.00;;
5149;SDS011;2593;52.466;13.436;2023-04-16T05:50:12;65.10;;;28.43;;
5149;SDS011;2593;52.466;13.436;2023-04-16T05:52:37;53.37;;;26.73;;
5149;SDS011;2593;52.466;13.436;2023-04-16T05:55:03;55.23;;;27.00;;
5149;SDS011;2593;52.466;13.436;2023-04-16T05:57:29;48.73;;;26.30;;
5149;SDS011;2593;52.466;13.436;2023-04-16T05:59:55;49.10;;;25.50;;
5149;SDS011;2593;52.466;13.436;2023-04-16T06:02:21;59.13;;;26.50;;
5149;SDS011;2593;52.466;13.436;2023-04-16T06:04:46;51.80;;;25.80;;
5149;SDS011;2593;52.466;13.436;2023-04-16T06:07:13;50.20;;;26.90;;
5149;SDS011;2593;52.466;13.436;2023-04-16T06:09:39;51.47;;;27.57;;
5149;SDS011;2593;52.466;13.436;2023-04-16T06:12:05;59.23;;;26.97;;
5149;SDS011;2593;52.466;13.436;2023-04-16T06:14:30;55.23;;;25.43;;
5149;SDS011;2593;52.466;13.436;2023-04-16T06:16:56;46.17;;;26.13;;
5149;SDS011;2593;52.466;13.436;2023-04-16T06:19:21;54.17;;;26.53;;
5149;SDS011;2593;52.466;13.436;2023-04-16T06:21:47;49.83;;;25.30;;
5149;SDS011;2593;52.466;13.436;2023-04-16T06:24:13;60.97;;;27.00;;
5149;SDS011;2593;52.466;13.436;2023-04-16T06:26:38;57.90;;;27.73;;
5149;SDS011;2593;52.466;13.436;2023-04-16T06:29:04;54.27;;;28.37;;
5149;SDS011;2593;52.466;13.436;2023-04-16T06:31:29;49.30;;;24.50;;
5149;SDS011;2593;52.466;13.436;2023-04-16T06:33:55;55.77;;;28.10;;
5149;SDS011;2593;52.466;13.436;2023-04-16T06:36:21;48.17;;;26.10;;
5149;SDS011;2593;52.466;13.436;2023-04-16T06:38:46;53.63;;;26.80;;
5149;SDS011;2593;52.466;13.436;2023-04-16T06:41:15;51.37;;;26.60;;
5149;SDS011;2593;52.466;13.436;2023-04-16T06:43:41;44.17;;;25.40;;
5149;SDS011;2593;52.466;13.436;2023-04-16T06:46:06;51.17;;;26.30;;
5149;SDS011;2593;52.466;13.436;2023-04-16T06:48:32;53.23;;;26.17;;
5149;SDS011;2593;52.466;13.436;2023-04-16T06:50:57;45.40;;;25.37;;
5149;SDS011;2593;52.466;13.436;2023-04-16T06:53:24;46.47;;;26.23;;
5149;SDS011;2593;52.466;13.436;2023-04-16T06:55:50;48.43;;;25.27;;
5149;SDS011;2593;52.466;13.436;2023-04-16T06:58:15;44.80;;;24.70;;
5149;SDS011;2593;52.466;13.436;2023-04-16T07:00:41;52.43;;;28.30;;
5149;SDS011;2593;52.466;13.436;2023-04-16T07:03:06;52.47;;;25.97;;
5149;SDS011;2593;52.466;13.436;2023-04-16T07:05:32;41.83;;;25.17;;
5149;SDS011;2593;52.466;13.436;2023-04-16T07:07:58;47.77;;;26.77;;
5149;SDS011;2593;52.466;13.436;2023-04-16T07:10:23;47.90;;;24.63;;
5149;SDS011;2593;52.466;13.436;2023-04-16T07:12:49;47.87;;;26.90;;
5149;SDS011;2593;52.466;13.436;2023-04-16T07:15:15;45.10;;;25.00;;
5149;SDS011;2593;52.466;13.436;2023-04-16T07:17:41;46.90;;;25.80;;
5149;SDS011;2593;52.466;13.436;2023-04-16T07:20:06;42.20;;;24.77;;
5149;SDS011;2593;52.466;13.436;2023-04-16T07:22:32;46.90;;;24.13;;
5149;SDS011;2593;52.466;13.436;2023-04-16T07:24:58;47.70;;;25.17;;
5149;SDS011;2593;52.466;13.436;2023-04-16T07:27:24;41.77;;;23.53;;
5149;SDS011;2593;52.466;13.436;2023-04-16T07:29:49;43.73;;;24.10;;
5149;SDS011;2593;52.466;13.436;2023-04-16T07:32:15;46.77;;;24.83;;
5149;SDS011;2593;52.466;13.436;2023-04-16T07:34:41;48.87;;;25.33;;
5149;SDS011;2593;52.466;13.436;2023-04-16T07:37:07;43.37;;;22.63;;
5149;SDS011;2593;52.466;13.436;2023-04-16T07:39:32;39.27;;;22.27;;
5149;SDS011;2593;52.466;13.436;2023-04-16T07:41:58;37.93;;;22.60;;
5149;SDS011;2593;52.466;13.436;2023-04-16T07:44:24;42.37;;;22.90;;
5149;SDS011;2593;52.466;13.436;2023-04-16T07:46:50;45.00;;;23.40;;
5149;SDS011;2593;52.466;13.436;2023-04-16T07:49:16;47.13;;;22.93;;
5149;SDS011;2593;52.466;13.436;2023-04-16T07:51:42;39.50;;;22.73;;
5149;SDS011;2593;52.466;13.436;2023-04-16T07:54:08;41.73;;;22.13;;
5149;SDS011;2593;52.466;13.436;2023-04-16T07:56:34;38.73;;;20.90;;
5149;SDS011;2593;52.466;13.436;2023-04-16T07:59:00;38.83;;;21.30;;
5149;SDS011;2593;52.466;13.436;2023-04-16T08:01:25;38.80;;;20.60;;
5149;SDS011;2593;52.466;13.436;2023-04-16T08:03:51;35.47;;;20.60;;
5149;SDS011;2593;52.466;13.436;2023-04-16T08:06:17;37.33;;;21.70;;
5149;SDS011;2593;52.466;13.436;2023-04-16T08:08:42;36.03;;;21.40;;
5149;SDS011;2593;52.466;13.436;2023-04-16T08:11:08;38.20;;;20.63;;
5149;SDS011;2593;52.466;13.436;2023-04-16T08:13:34;33.03;;;20.13;;
5149;SDS011;2593;52.466;13.436;2023-04-16T08:15:59;37.27;;;21.43;;
5149;SDS011;2593;52.466;13.436;2023-04-16T08:18:25;38.07;;;21.47;;
5149;SDS011;2593;52.466;13.436;2023-04-16T08:20:51;37.47;;;21.90;;
5149;SDS011;2593;52.466;13.436;2023-04-16T08:23:17;35.67;;;20.47;;
5149;SDS011;2593;52.466;13.436;2023-04-16T08:25:42;36.53;;;20.90;;
5149;SDS011;2593;52.466;13.436;2023-04-16T08:28:09;33.10;;;20.73;;
5149;SDS011;2593;52.466;13.436;2023-04-16T08:30:35;31.13;;;20.00;;
5149;SDS011;2593;52.466;13.436;2023-04-16T08:35:28;35.23;;;19.90;;
5149;SDS011;2593;52.466;13.436;2023-04-16T08:37:54;37.37;;;21.13;;
5149;SDS011;2593;52.466;13.436;2023-04-16T08:40:21;41.77;;;21.80;;
5149;SDS011;2593;52.466;13.436;2023-04-16T08:42:52;36.70;;;20.50;;
5149;SDS011;2593;52.466;13.436;2023-04-16T08:45:19;34.83;;;19.43;;
5149;SDS011;2593;52.466;13.436;2023-04-16T08:47:49;37.80;;;19.93;;
5149;SDS011;2593;52.466;13.436;2023-04-16T08:50:16;31.87;;;18.77;;
5149;SDS011;2593;52.466;13.436;2023-04-16T08:52:50;38.83;;;19.60;;
5149;SDS011;2593;52.466;13.436;2023-04-16T08:56:08;39.50;;;20.33;;
5149;SDS011;2593;52.466;13.436;2023-04-16T08:58:14;30.67;;;19.60;;
5149;SDS011;2593;52.466;13.436;2023-04-16T09:00:39;33.23;;;21.43;;
5149;SDS011;2593;52.466;13.436;2023-04-16T09:03:06;31.60;;;19.17;;
5149;SDS011;2593;52.466;13.436;2023-04-16T09:05:33;32.67;;;19.70;;
5149;SDS011;2593;52.466;13.436;2023-04-16T09:07:59;38.07;;;21.47;;
5149;SDS011;2593;52.466;13.436;2023-04-16T09:10:25;35.07;;;20.77;;
5149;SDS011;2593;52.466;13.436;2023-04-16T09:12:51;36.30;;;22.00;;
5149;SDS011;2593;52.466;13.436;2023-04-16T09:15:19;32.20;;;20.23;;
5149;SDS011;2593;52.466;13.436;2023-04-16T09:17:45;36.37;;;21.40;;
5149;SDS011;2593;52.466;13.436;2023-04-16T09:20:11;33.00;;;20.17;;
5149;SDS011;2593;52.466;13.436;2023-04-16T09:22:37;32.93;;;20.27;;
5149;SDS011;2593;52.466;13.436;2023-04-16T09:25:06;35.80;;;20.63;;
5149;SDS011;2593;52.466;13.436;2023-04-16T09:27:32;36.47;;;20.87;;
5149;SDS011;2593;52.466;13.436;2023-04-16T09:29:58;34.63;;;20.57;;
5149;SDS011;2593;52.466;13.436;2023-04-16T09:32:25;37.23;;;21.57;;
5149;SDS011;2593;52.466;13.436;2023-04-16T09:35:00;34.23;;;20.33;;
5149;SDS011;2593;52.466;13.436;2023-04-16T09:37:27;46.30;;;20.87;;
5149;SDS011;2593;52.466;13.436;2023-04-16T09:40:03;38.80;;;22.30;;
5149;SDS011;2593;52.466;13.436;2023-04-16T09:42:30;38.33;;;21.80;;
5149;SDS011;2593;52.466;13.436;2023-04-16T09:44:57;37.57;;;21.47;;
5149;SDS011;2593;52.466;13.436;2023-04-16T09:47:24;48.40;;;23.33;;
5149;SDS011;2593;52.466;13.436;2023-04-16T09:49:51;32.47;;;21.10;;
5149;SDS011;2593;52.466;13.436;2023-04-16T09:52:17;32.03;;;19.33;;
5149;SDS011;2593;52.466;13.436;2023-04-16T09:57:20;32.53;;;19.53;;
5149;SDS011;2593;52.466;13.436;2023-04-16T09:59:47;32.40;;;18.80;;
5149;SDS011;2593;52.466;13.436;2023-04-16T10:02:17;34.33;;;18.77;;
5149;SDS011;2593;52.466;13.436;2023-04-16T10:04:50;31.53;;;18.83;;
5149;SDS011;2593;52.466;13.436;2023-04-16T10:07:17;32.40;;;20.63;;
5149;SDS011;2593;52.466;13.436;2023-04-16T10:09:43;31.67;;;20.00;;
5149;SDS011;2593;52.466;13.436;2023-04-16T10:12:09;35.93;;;20.37;;
5149;SDS011;2593;52.466;13.436;2023-04-16T10:14:36;32.77;;;20.27;;
5149;SDS011;2593;52.466;13.436;2023-04-16T10:17:02;38.10;;;21.93;;
5149;SDS011;2593;52.466;13.436;2023-04-16T10:19:30;30.80;;;20.50;;
5149;SDS011;2593;52.466;13.436;2023-04-16T10:21:57;35.27;;;20.80;;
5149;SDS011;2593;52.466;13.436;2023-04-16T10:24:23;37.30;;;21.90;;
5149;SDS011;2593;52.466;13.436;2023-04-16T10:26:50;37.00;;;20.73;;
5149;SDS011;2593;52.466;13.436;2023-04-16T10:29:17;32.80;;;20.87;;
5149;SDS011;2593;52.466;13.436;2023-04-16T10:31:44;34.63;;;21.67;;
5149;SDS011;2593;52.466;13.436;2023-04-16T10:34:11;39.23;;;22.57;;
5149;SDS011;2593;52.466;13.436;2023-04-16T10:36:38;42.03;;;24.40;;
5149;SDS011;2593;52.466;13.436;2023-04-16T10:39:05;38.50;;;22.70;;
5149;SDS011;2593;52.466;13.436;2023-04-16T10:41:39;39.90;;;22.20;;
5149;SDS011;2593;52.466;13.436;2023-04-16T10:44:07;42.83;;;23.83;;
5149;SDS011;2593;52.466;13.436;2023-04-16T10:46:43;36.73;;;23.77;;
5149;SDS011;2593;52.466;13.436;2023-04-16T10:51:59;61.43;;;28.27;;
5149;SDS011;2593;52.466;13.436;2023-04-16T10:54:31;42.33;;;23.97;;
5149;SDS011;2593;52.466;13.436;2023-04-16T10:57:03;52.07;;;26.90;;
5149;SDS011;2593;52.466;13.436;2023-04-16T10:59:31;35.83;;;22.97;;
5149;SDS011;2593;52.466;13.436;2023-04-16T11:01:59;47.27;;;26.63;;
5149;SDS011;2593;52.466;13.436;2023-04-16T11:04:36;38.77;;;25.20;;
5149;SDS011;2593;52.466;13.436;2023-04-16T11:09:57;42.00;;;25.13;;
5149;SDS011;2593;52.466;13.436;2023-04-16T11:15:12;41.57;;;22.90;;
5149;SDS011;2593;52.466;13.436;2023-04-16T11:17:41;32.03;;;20.77;;
5149;SDS011;2593;52.466;13.436;2023-04-16T11:20:13;34.17;;;22.10;;
5149;SDS011;2593;52.466;13.436;2023-04-16T11:22:39;36.47;;;23.00;;
5149;SDS011;2593;52.466;13.436;2023-04-16T11:25:06;42.17;;;21.77;;
5149;SDS011;2593;52.466;13.436;2023-04-16T11:27:32;34.90;;;21.43;;
5149;SDS011;2593;52.466;13.436;2023-04-16T11:29:59;32.27;;;20.07;;
5149;SDS011;2593;52.466;13.436;2023-04-16T11:32:29;33.90;;;21.80;;
5149;SDS011;2593;52.466;13.436;2023-04-16T11:34:56;36.27;;;22.57;;
5149;SDS011;2593;52.466;13.436;2023-04-16T11:37:33;34.67;;;21.87;;
5149;SDS011;2593;52.466;13.436;2023-04-16T11:40:00;30.40;;;20.33;;
5149;SDS011;2593;52.466;13.436;2023-04-16T11:42:29;26.70;;;19.57;;
5149;SDS011;2593;52.466;13.436;2023-04-16T11:44:55;30.63;;;18.50;;
5149;SDS011;2593;52.466;13.436;2023-04-16T11:47:22;30.70;;;19.70;;
5149;SDS011;2593;52.466;13.436;2023-04-16T11:49:49;34.37;;;19.33;;
5149;SDS011;2593;52.466;13.436;2023-04-16T11:52:24;31.10;;;18.70;;
5149;SDS011;2593;52.466;13.436;2023-04-16T11:54:51;31.27;;;20.23;;
5149;SDS011;2593;52.466;13.436;2023-04-16T11:57:27;38.20;;;24.40;;
5149;SDS011;2593;52.466;13.436;2023-04-16T11:59:53;31.93;;;22.43;;
5149;SDS011;2593;52.466;13.436;2023-04-16T12:02:33;34.10;;;24.33;;
5149;SDS011;2593;52.466;13.436;2023-04-16T12:07:54;24.83;;;18.80;;
5149;SDS011;2593;52.466;13.436;2023-04-16T12:10:21;28.07;;;19.50;;
5149;SDS011;2593;52.466;13.436;2023-04-16T12:12:46;25.27;;;18.30;;
5149;SDS011;2593;52.466;13.436;2023-04-16T12:15:12;25.63;;;19.60;;
5149;SDS011;2593;52.466;13.436;2023-04-16T12:17:38;27.00;;;19.67;;
5149;SDS011;2593;52.466;13.436;2023-04-16T12:20:13;27.63;;;19.80;;
5149;SDS011;2593;52.466;13.436;2023-04-16T12:22:43;27.10;;;19.73;;
5149;SDS011;2593;52.466;13.436;2023-04-16T12:25:11;25.07;;;19.50;;
5149;SDS011;2593;52.466;13.436;2023-04-16T12:30:12;28.53;;;20.73;;
5149;SDS011;2593;52.466;13.436;2023-04-16T12:32:40;29.53;;;19.93;;
5149;SDS011;2593;52.466;13.436;2023-04-16T12:35:06;27.73;;;20.97;;
5149;SDS011;2593;52.466;13.436;2023-04-16T12:37:33;31.10;;;21.53;;
5149;SDS011;2593;52.466;13.436;2023-04-16T12:40:00;31.40;;;21.47;;
5149;SDS011;2593;52.466;13.436;2023-04-16T12:42:25;27.97;;;19.47;;
5149;SDS011;2593;52.466;13.436;2023-04-16T12:44:51;26.73;;;18.50;;
5149;SDS011;2593;52.466;13.436;2023-04-16T12:47:17;29.73;;;19.80;;
5149;SDS011;2593;52.466;13.436;2023-04-16T12:49:43;28.90;;;20.33;;
5149;SDS011;2593;52.466;13.436;2023-04-16T12:52:09;33.50;;;21.07;;
5149;SDS011;2593;52.466;13.436;2023-04-16T12:54:35;26.53;;;18.63;;
5149;SDS011;2593;52.466;13.436;2023-04-16T12:57:00;25.13;;;17.60;;
5149;SDS011;2593;52.466;13.436;2023-04-16T12:59:26;24.53;;;17.50;;
5149;SDS011;2593;52.466;13.436;2023-04-16T13:01:52;21.20;;;16.43;;
5149;SDS011;2593;52.466;13.436;2023-04-16T13:04:17;27.60;;;18.40;;
5149;SDS011;2593;52.466;13.436;2023-04-16T13:06:43;27.00;;;19.50;;
5149;SDS011;2593;52.466;13.436;2023-04-16T13:09:09;24.10;;;17.63;;
5149;SDS011;2593;52.466;13.436;2023-04-16T13:11:36;21.47;;;16.87;;
5149;SDS011;2593;52.466;13.436;2023-04-16T13:14:02;24.27;;;17.30;;
5149;SDS011;2593;52.466;13.436;2023-04-16T13:16:27;20.77;;;15.53;;
5149;SDS011;2593;52.466;13.436;2023-04-16T13:18:53;22.43;;;15.10;;
5149;SDS011;2593;52.466;13.436;2023-04-16T13:21:18;27.70;;;16.10;;
5149;SDS011;2593;52.466;13.436;2023-04-16T13:23:44;21.33;;;14.27;;
5149;SDS011;2593;52.466;13.436;2023-04-16T13:26:10;22.30;;;13.50;;
5149;SDS011;2593;52.466;13.436;2023-04-16T13:28:37;18.90;;;14.23;;
5149;SDS011;2593;52.466;13.436;2023-04-16T13:31:02;25.87;;;14.83;;
5149;SDS011;2593;52.466;13.436;2023-04-16T13:33:28;23.00;;;16.33;;
5149;SDS011;2593;52.466;13.436;2023-04-16T13:35:54;18.23;;;14.73;;
5149;SDS011;2593;52.466;13.436;2023-04-16T13:38:20;37.40;;;16.13;;
5149;SDS011;2593;52.466;13.436;2023-04-16T13:40:45;22.00;;;15.77;;
5149;SDS011;2593;52.466;13.436;2023-04-16T13:43:11;22.30;;;16.30;;
5149;SDS011;2593;52.466;13.436;2023-04-16T13:45:38;31.40;;;16.70;;
5149;SDS011;2593;52.466;13.436;2023-04-16T13:48:03;22.33;;;16.23;;
5149;SDS011;2593;52.466;13.436;2023-04-16T13:50:29;25.40;;;16.90;;
5149;SDS011;2593;52.466;13.436;2023-04-16T13:52:55;22.50;;;15.00;;
5149;SDS011;2593;52.466;13.436;2023-04-16T13:55:21;21.93;;;15.23;;
5149;SDS011;2593;52.466;13.436;2023-04-16T13:57:47;20.57;;;14.47;;
5149;SDS011;2593;52.466;13.436;2023-04-16T14:00:13;19.87;;;14.23;;
5149;SDS011;2593;52.466;13.436;2023-04-16T14:02:40;22.67;;;13.77;;
5149;SDS011;2593;52.466;13.436;2023-04-16T14:05:06;24.00;;;13.50;;
5149;SDS011;2593;52.466;13.436;2023-04-16T14:07:32;20.80;;;15.63;;
5149;SDS011;2593;52.466;13.436;2023-04-16T14:09:58;24.00;;;14.30;;
5149;SDS011;2593;52.466;13.436;2023-04-16T14:12:23;24.90;;;14.60;;
5149;SDS011;2593;52.466;13.436;2023-04-16T14:14:49;24.30;;;15.40;;
5149;SDS011;2593;52.466;13.436;2023-04-16T14:17:15;19.57;;;15.00;;
5149;SDS011;2593;52.466;13.436;2023-04-16T14:19:40;19.53;;;14.40;;
5149;SDS011;2593;52.466;13.436;2023-04-16T14:22:06;23.73;;;14.60;;
5149;SDS011;2593;52.466;13.436;2023-04-16T14:24:31;20.10;;;15.13;;
5149;SDS011;2593;52.466;13.436;2023-04-16T14:26:57;28.83;;;17.43;;
5149;SDS011;2593;52.466;13.436;2023-04-16T14:29:23;24.20;;;15.70;;
5149;SDS011;2593;52.466;13.436;2023-04-16T14:31:48;22.67;;;15.10;;
5149;SDS011;2593;52.466;13.436;2023-04-16T14:34:15;22.40;;;15.17;;
5149;SDS011;2593;52.466;13.436;2023-04-16T14:36:40;22.60;;;14.93;;
5149;SDS011;2593;52.466;13.436;2023-04-16T14:39:07;26.03;;;13.70;;
5149;SDS011;2593;52.466;13.436;2023-04-16T14:41:32;20.47;;;12.30;;
5149;SDS011;2593;52.466;13.436;2023-04-16T14:43:58;20.93;;;12.27;;
5149;SDS011;2593;52.466;13.436;2023-04-16T14:46:24;17.30;;;12.67;;
5149;SDS011;2593;52.466;13.436;2023-04-16T14:48:51;15.50;;;11.90;;